sensor_id;sensor_type;location;lat;lon;timestamp;temperature;humidity
52889;DHT22;41413;52.770;6.892;2024-02-26T00:01:04;4.00;99.90
52889;DHT22;41413;52.770;6.892;2024-02-26T00:03:31;4.00;99.90
52889;DHT22;41413;52.770;6.892;2024-02-26T00:06:02;3.90;99.90
52889;DHT22;41413;52.770;6.892;2024-02-26T00:08:29;3.90;99.90
52889;DHT22;41413;52.770;6.892;2024-02-26T00:10:56;3.90;99.90
52889;DHT22;41413;52.770;6.892;2024-02-26T00:13:23;3.90;99.90
52889;DHT22;41413;52.770;6.892;2024-02-26T00:15:49;3.90;99.90
52889;DHT22;41413;52.770;6.892;2024-02-26T00:18:16;3.80;99.90
52889;DHT22;41413;52.770;6.892;2024-02-26T00:20:43;3.80;99.90
52889;DHT22;41413;52.770;6.892;2024-02-26T00:23:10;3.80;99.90
52889;DHT22;41413;52.770;6.892;2024-02-26T00:25:36;3.80;99.90
52889;DHT22;41413;52.770;6.892;2024-02-26T00:28:05;3.80;99.90
52889;DHT22;41413;52.770;6.892;2024-02-26T00:30:32;3.70;99.90
52889;DHT22;41413;52.770;6.892;2024-02-26T00:32:59;3.70;99.90
52889;DHT22;41413;52.770;6.892;2024-02-26T00:35:26;3.60;99.90
52889;DHT22;41413;52.770;6.892;2024-02-26T00:37:52;3.60;99.90
52889;DHT22;41413;52.770;6.892;2024-02-26T00:40:19;3.60;99.90
52889;DHT22;41413;52.770;6.892;2024-02-26T00:42:46;3.60;99.90
52889;DHT22;41413;52.770;6.892;2024-02-26T00:45:14;3.60;99.90
52889;DHT22;41413;52.770;6.892;2024-02-26T00:47:43;3.60;99.90
52889;DHT22;41413;52.770;6.892;2024-02-26T00:50:11;3.50;99.90
52889;DHT22;41413;52.770;6.892;2024-02-26T00:52:38;3.50;99.90
52889;DHT22;41413;52.770;6.892;2024-02-26T00:55:05;3.50;99.90
52889;DHT22;41413;52.770;6.892;2024-02-26T00:57:32;3.50;99.90
52889;DHT22;41413;52.770;6.892;2024-02-26T00:59:59;3.60;99.90
52889;DHT22;41413;52.770;6.892;2024-02-26T01:02:27;3.50;99.90
52889;DHT22;41413;52.770;6.892;2024-02-26T01:04:53;3.50;99.90
52889;DHT22;41413;52.770;6.892;2024-02-26T01:07:20;3.60;99.90
52889;DHT22;41413;52.770;6.892;2024-02-26T01:09:47;3.60;99.90
52889;DHT22;41413;52.770;6.892;2024-02-26T01:12:14;3.50;99.90
52889;DHT22;41413;52.770;6.892;2024-02-26T01:14:41;3.60;99.90
52889;DHT22;41413;52.770;6.892;2024-02-26T01:17:07;3.60;99.90
52889;DHT22;41413;52.770;6.892;2024-02-26T01:19:34;3.50;99.90
52889;DHT22;41413;52.770;6.892;2024-02-26T01:22:01;3.50;99.90
52889;DHT22;41413;52.770;6.892;2024-02-26T01:24:28;3.50;99.90
52889;DHT22;41413;52.770;6.892;2024-02-26T01:26:55;3.60;99.90
52889;DHT22;41413;52.770;6.892;2024-02-26T01:29:22;3.60;99.90
52889;DHT22;41413;52.770;6.892;2024-02-26T01:31:49;3.50;99.90
52889;DHT22;41413;52.770;6.892;2024-02-26T01:34:15;3.50;99.90
52889;DHT22;41413;52.770;6.892;2024-02-26T01:36:44;3.50;99.90
52889;DHT22;41413;52.770;6.892;2024-02-26T01:39:11;3.50;99.90
52889;DHT22;41413;52.770;6.892;2024-02-26T01:41:40;3.50;99.90
52889;DHT22;41413;52.770;6.892;2024-02-26T01:44:07;3.50;99.90
52889;DHT22;41413;52.770;6.892;2024-02-26T01:46:35;3.50;99.90
52889;DHT22;41413;52.770;6.892;2024-02-26T01:49:02;3.50;99.90
52889;DHT22;41413;52.770;6.892;2024-02-26T01:51:32;3.40;99.90
52889;DHT22;41413;52.770;6.892;2024-02-26T01:54:00;3.40;99.90
52889;DHT22;41413;52.770;6.892;2024-02-26T01:56:29;3.40;99.90
52889;DHT22;41413;52.770;6.892;2024-02-26T01:58:59;3.40;99.90
52889;DHT22;41413;52.770;6.892;2024-02-26T02:01:30;3.40;99.90
52889;DHT22;41413;52.770;6.892;2024-02-26T02:03:58;3.40;99.90
52889;DHT22;41413;52.770;6.892;2024-02-26T02:06:27;3.40;99.90
52889;DHT22;41413;52.770;6.892;2024-02-26T02:08:56;3.40;99.90
52889;DHT22;41413;52.770;6.892;2024-02-26T02:11:23;3.30;99.90
52889;DHT22;41413;52.770;6.892;2024-02-26T02:13:50;3.30;99.90
52889;DHT22;41413;52.770;6.892;2024-02-26T02:16:16;3.30;99.90
52889;DHT22;41413;52.770;6.892;2024-02-26T02:18:43;3.30;99.90
52889;DHT22;41413;52.770;6.892;2024-02-26T02:21:10;3.30;99.90
52889;DHT22;41413;52.770;6.892;2024-02-26T02:23:38;3.30;99.90
52889;DHT22;41413;52.770;6.892;2024-02-26T02:26:05;3.30;99.90
52889;DHT22;41413;52.770;6.892;2024-02-26T02:28:32;3.30;99.90
52889;DHT22;41413;52.770;6.892;2024-02-26T02:30:59;3.30;99.90
52889;DHT22;41413;52.770;6.892;2024-02-26T02:33:27;3.20;99.90
52889;DHT22;41413;52.770;6.892;2024-02-26T02:35:54;3.20;99.90
52889;DHT22;41413;52.770;6.892;2024-02-26T02:38:21;3.30;99.90
52889;DHT22;41413;52.770;6.892;2024-02-26T02:40:49;3.20;99.90
52889;DHT22;41413;52.770;6.892;2024-02-26T02:43:16;3.20;99.90
52889;DHT22;41413;52.770;6.892;2024-02-26T02:45:43;3.30;99.90
52889;DHT22;41413;52.770;6.892;2024-02-26T02:48:11;3.30;99.90
52889;DHT22;41413;52.770;6.892;2024-02-26T02:50:38;3.30;99.90
52889;DHT22;41413;52.770;6.892;2024-02-26T02:53:05;3.30;99.90
52889;DHT22;41413;52.770;6.892;2024-02-26T02:55:32;3.30;99.90
52889;DHT22;41413;52.770;6.892;2024-02-26T02:57:58;3.30;99.90
52889;DHT22;41413;52.770;6.892;2024-02-26T03:00:25;3.30;99.90
52889;DHT22;41413;52.770;6.892;2024-02-26T03:02:53;3.30;99.90
52889;DHT22;41413;52.770;6.892;2024-02-26T03:05:20;3.30;99.90
52889;DHT22;41413;52.770;6.892;2024-02-26T03:07:47;3.30;99.90
52889;DHT22;41413;52.770;6.892;2024-02-26T03:10:14;3.30;99.90
52889;DHT22;41413;52.770;6.892;2024-02-26T03:12:41;3.30;99.90
52889;DHT22;41413;52.770;6.892;2024-02-26T03:15:08;3.30;99.90
52889;DHT22;41413;52.770;6.892;2024-02-26T03:17:35;3.30;99.90
52889;DHT22;41413;52.770;6.892;2024-02-26T03:20:01;3.40;99.90
52889;DHT22;41413;52.770;6.892;2024-02-26T03:22:31;3.30;99.90
52889;DHT22;41413;52.770;6.892;2024-02-26T03:24:57;3.40;99.90
52889;DHT22;41413;52.770;6.892;2024-02-26T03:27:24;3.40;99.90
52889;DHT22;41413;52.770;6.892;2024-02-26T03:29:51;3.40;99.90
52889;DHT22;41413;52.770;6.892;2024-02-26T03:32:19;3.40;99.90
52889;DHT22;41413;52.770;6.892;2024-02-26T03:34:46;3.40;99.90
52889;DHT22;41413;52.770;6.892;2024-02-26T03:37:13;3.40;99.90
52889;DHT22;41413;52.770;6.892;2024-02-26T03:39:40;3.40;99.90
52889;DHT22;41413;52.770;6.892;2024-02-26T03:42:06;3.40;99.90
52889;DHT22;41413;52.770;6.892;2024-02-26T03:44:33;3.40;99.90
52889;DHT22;41413;52.770;6.892;2024-02-26T03:47:00;3.40;99.90
52889;DHT22;41413;52.770;6.892;2024-02-26T03:49:27;3.40;99.90
52889;DHT22;41413;52.770;6.892;2024-02-26T03:51:54;3.40;99.90
52889;DHT22;41413;52.770;6.892;2024-02-26T03:54:20;3.40;99.90
52889;DHT22;41413;52.770;6.892;2024-02-26T03:56:47;3.40;99.90
52889;DHT22;41413;52.770;6.892;2024-02-26T03:59:14;3.40;99.90
52889;DHT22;41413;52.770;6.892;2024-02-26T04:01:45;3.40;99.90
52889;DHT22;41413;52.770;6.892;2024-02-26T04:04:13;3.40;99.90
52889;DHT22;41413;52.770;6.892;2024-02-26T04:06:40;3.40;99.90
52889;DHT22;41413;52.770;6.892;2024-02-26T04:09:10;3.40;99.90
52889;DHT22;41413;52.770;6.892;2024-02-26T04:11:37;3.40;99.90
52889;DHT22;41413;52.770;6.892;2024-02-26T04:14:04;3.40;99.90
52889;DHT22;41413;52.770;6.892;2024-02-26T04:16:32;3.40;99.90
52889;DHT22;41413;52.770;6.892;2024-02-26T04:18:59;3.40;99.90
52889;DHT22;41413;52.770;6.892;2024-02-26T04:21:26;3.30;99.90
52889;DHT22;41413;52.770;6.892;2024-02-26T04:23:52;3.40;99.90
52889;DHT22;41413;52.770;6.892;2024-02-26T04:26:22;3.40;99.90
52889;DHT22;41413;52.770;6.892;2024-02-26T04:28:48;3.30;99.90
52889;DHT22;41413;52.770;6.892;2024-02-26T04:31:15;3.30;99.90
52889;DHT22;41413;52.770;6.892;2024-02-26T04:33:42;3.40;99.90
52889;DHT22;41413;52.770;6.892;2024-02-26T04:36:14;3.40;99.90
52889;DHT22;41413;52.770;6.892;2024-02-26T04:38:44;3.40;99.90
52889;DHT22;41413;52.770;6.892;2024-02-26T04:41:11;3.40;99.90
52889;DHT22;41413;52.770;6.892;2024-02-26T04:43:38;3.40;99.90
52889;DHT22;41413;52.770;6.892;2024-02-26T04:46:08;3.40;99.90
52889;DHT22;41413;52.770;6.892;2024-02-26T04:48:36;3.40;99.90
52889;DHT22;41413;52.770;6.892;2024-02-26T04:51:03;3.40;99.90
52889;DHT22;41413;52.770;6.892;2024-02-26T04:53:30;3.40;99.90
52889;DHT22;41413;52.770;6.892;2024-02-26T04:55:57;3.40;99.90
52889;DHT22;41413;52.770;6.892;2024-02-26T04:58:24;3.40;99.90
52889;DHT22;41413;52.770;6.892;2024-02-26T05:00:51;3.50;99.90
52889;DHT22;41413;52.770;6.892;2024-02-26T05:03:18;3.50;99.90
52889;DHT22;41413;52.770;6.892;2024-02-26T05:05:44;3.50;99.90
52889;DHT22;41413;52.770;6.892;2024-02-26T05:08:12;3.50;99.90
52889;DHT22;41413;52.770;6.892;2024-02-26T05:10:39;3.50;99.90
52889;DHT22;41413;52.770;6.892;2024-02-26T05:13:07;3.50;99.90
52889;DHT22;41413;52.770;6.892;2024-02-26T05:15:34;3.50;99.90
52889;DHT22;41413;52.770;6.892;2024-02-26T05:18:02;3.50;99.90
52889;DHT22;41413;52.770;6.892;2024-02-26T05:20:29;3.50;99.90
52889;DHT22;41413;52.770;6.892;2024-02-26T05:22:56;3.60;99.90
52889;DHT22;41413;52.770;6.892;2024-02-26T05:25:25;3.60;99.90
52889;DHT22;41413;52.770;6.892;2024-02-26T05:27:52;3.60;99.90
52889;DHT22;41413;52.770;6.892;2024-02-26T05:30:18;3.60;99.90
52889;DHT22;41413;52.770;6.892;2024-02-26T05:32:45;3.60;99.90
52889;DHT22;41413;52.770;6.892;2024-02-26T05:35:12;3.60;99.90
52889;DHT22;41413;52.770;6.892;2024-02-26T05:37:39;3.60;99.90
52889;DHT22;41413;52.770;6.892;2024-02-26T05:40:06;3.70;99.90
52889;DHT22;41413;52.770;6.892;2024-02-26T05:42:33;3.70;99.90
52889;DHT22;41413;52.770;6.892;2024-02-26T05:45:00;3.70;99.90
52889;DHT22;41413;52.770;6.892;2024-02-26T05:47:33;3.70;99.90
52889;DHT22;41413;52.770;6.892;2024-02-26T05:50:00;3.70;99.90
52889;DHT22;41413;52.770;6.892;2024-02-26T05:52:27;3.70;99.90
52889;DHT22;41413;52.770;6.892;2024-02-26T05:54:55;3.70;99.90
52889;DHT22;41413;52.770;6.892;2024-02-26T05:57:22;3.70;99.90
52889;DHT22;41413;52.770;6.892;2024-02-26T05:59:49;3.70;99.90
52889;DHT22;41413;52.770;6.892;2024-02-26T06:02:16;3.70;99.90
52889;DHT22;41413;52.770;6.892;2024-02-26T06:04:42;3.70;99.90
52889;DHT22;41413;52.770;6.892;2024-02-26T06:07:09;3.70;99.90
52889;DHT22;41413;52.770;6.892;2024-02-26T06:09:36;3.70;99.90
52889;DHT22;41413;52.770;6.892;2024-02-26T06:12:03;3.70;99.90
52889;DHT22;41413;52.770;6.892;2024-02-26T06:14:30;3.70;99.90
52889;DHT22;41413;52.770;6.892;2024-02-26T06:16:57;3.70;99.90
52889;DHT22;41413;52.770;6.892;2024-02-26T06:19:23;3.70;99.90
52889;DHT22;41413;52.770;6.892;2024-02-26T06:21:50;3.70;99.90
52889;DHT22;41413;52.770;6.892;2024-02-26T06:24:17;3.70;99.90
52889;DHT22;41413;52.770;6.892;2024-02-26T06:26:44;3.70;99.90
52889;DHT22;41413;52.770;6.892;2024-02-26T06:29:11;3.70;99.90
52889;DHT22;41413;52.770;6.892;2024-02-26T06:31:37;3.70;99.90
52889;DHT22;41413;52.770;6.892;2024-02-26T06:34:04;3.70;99.90
52889;DHT22;41413;52.770;6.892;2024-02-26T06:36:31;3.70;99.90
52889;DHT22;41413;52.770;6.892;2024-02-26T06:38:59;3.70;99.90
52889;DHT22;41413;52.770;6.892;2024-02-26T06:41:26;3.70;99.90
52889;DHT22;41413;52.770;6.892;2024-02-26T06:43:54;3.70;99.90
52889;DHT22;41413;52.770;6.892;2024-02-26T06:46:23;3.70;99.90
52889;DHT22;41413;52.770;6.892;2024-02-26T06:48:51;3.70;99.90
52889;DHT22;41413;52.770;6.892;2024-02-26T06:51:21;3.70;99.90
52889;DHT22;41413;52.770;6.892;2024-02-26T06:53:49;3.70;99.90
52889;DHT22;41413;52.770;6.892;2024-02-26T06:56:16;3.70;99.90
52889;DHT22;41413;52.770;6.892;2024-02-26T06:58:43;3.70;99.90
52889;DHT22;41413;52.770;6.892;2024-02-26T07:01:11;3.70;99.90
52889;DHT22;41413;52.770;6.892;2024-02-26T07:03:40;3.80;99.90
52889;DHT22;41413;52.770;6.892;2024-02-26T07:06:08;3.80;99.90
52889;DHT22;41413;52.770;6.892;2024-02-26T07:08:35;3.80;99.90
52889;DHT22;41413;52.770;6.892;2024-02-26T07:11:02;3.80;99.90
52889;DHT22;41413;52.770;6.892;2024-02-26T07:13:29;3.80;99.90
52889;DHT22;41413;52.770;6.892;2024-02-26T07:15:55;3.80;99.90
52889;DHT22;41413;52.770;6.892;2024-02-26T07:18:22;3.90;99.90
52889;DHT22;41413;52.770;6.892;2024-02-26T07:20:49;3.90;99.90
52889;DHT22;41413;52.770;6.892;2024-02-26T07:23:16;3.90;99.90
52889;DHT22;41413;52.770;6.892;2024-02-26T07:25:43;3.90;99.90
52889;DHT22;41413;52.770;6.892;2024-02-26T07:28:14;4.00;99.90
52889;DHT22;41413;52.770;6.892;2024-02-26T07:30:41;3.90;99.90
52889;DHT22;41413;52.770;6.892;2024-02-26T07:33:07;3.90;99.90
52889;DHT22;41413;52.770;6.892;2024-02-26T07:35:34;3.90;99.90
52889;DHT22;41413;52.770;6.892;2024-02-26T07:38:03;4.00;99.90
52889;DHT22;41413;52.770;6.892;2024-02-26T07:40:29;3.90;99.90
52889;DHT22;41413;52.770;6.892;2024-02-26T07:42:56;4.00;99.90
52889;DHT22;41413;52.770;6.892;2024-02-26T07:45:23;4.00;99.90
52889;DHT22;41413;52.770;6.892;2024-02-26T07:47:50;4.00;99.90
52889;DHT22;41413;52.770;6.892;2024-02-26T07:50:18;4.00;99.90
52889;DHT22;41413;52.770;6.892;2024-02-26T07:52:46;4.00;99.90
52889;DHT22;41413;52.770;6.892;2024-02-26T07:55:13;4.00;99.90
52889;DHT22;41413;52.770;6.892;2024-02-26T07:57:43;4.10;99.90
52889;DHT22;41413;52.770;6.892;2024-02-26T08:00:10;4.10;99.90
52889;DHT22;41413;52.770;6.892;2024-02-26T08:02:37;4.10;99.90
52889;DHT22;41413;52.770;6.892;2024-02-26T08:05:04;4.10;99.90
52889;DHT22;41413;52.770;6.892;2024-02-26T08:07:31;4.10;99.90
52889;DHT22;41413;52.770;6.892;2024-02-26T08:09:58;4.10;99.90
52889;DHT22;41413;52.770;6.892;2024-02-26T08:12:25;4.10;99.90
52889;DHT22;41413;52.770;6.892;2024-02-26T08:14:52;4.10;99.90
52889;DHT22;41413;52.770;6.892;2024-02-26T08:17:19;4.20;99.90
52889;DHT22;41413;52.770;6.892;2024-02-26T08:19:45;4.10;99.90
52889;DHT22;41413;52.770;6.892;2024-02-26T08:22:12;4.20;99.90
52889;DHT22;41413;52.770;6.892;2024-02-26T08:24:42;4.20;99.90
52889;DHT22;41413;52.770;6.892;2024-02-26T08:27:09;4.20;99.90
52889;DHT22;41413;52.770;6.892;2024-02-26T08:29:36;4.20;99.90
52889;DHT22;41413;52.770;6.892;2024-02-26T08:32:03;4.30;99.90
52889;DHT22;41413;52.770;6.892;2024-02-26T08:34:30;4.20;99.90
52889;DHT22;41413;52.770;6.892;2024-02-26T08:36:57;4.20;99.90
52889;DHT22;41413;52.770;6.892;2024-02-26T08:39:23;4.20;99.90
52889;DHT22;41413;52.770;6.892;2024-02-26T08:41:50;4.20;99.90
52889;DHT22;41413;52.770;6.892;2024-02-26T08:44:17;4.20;99.90
52889;DHT22;41413;52.770;6.892;2024-02-26T08:46:44;4.20;99.90
52889;DHT22;41413;52.770;6.892;2024-02-26T08:49:12;4.20;99.90
52889;DHT22;41413;52.770;6.892;2024-02-26T08:51:42;4.30;99.90
52889;DHT22;41413;52.770;6.892;2024-02-26T08:54:10;4.30;99.90
52889;DHT22;41413;52.770;6.892;2024-02-26T08:56:39;4.30;99.90
52889;DHT22;41413;52.770;6.892;2024-02-26T08:59:06;4.30;99.90
52889;DHT22;41413;52.770;6.892;2024-02-26T09:01:33;4.30;99.90
52889;DHT22;41413;52.770;6.892;2024-02-26T09:04:00;4.40;99.90
52889;DHT22;41413;52.770;6.892;2024-02-26T09:06:27;4.40;99.90
52889;DHT22;41413;52.770;6.892;2024-02-26T09:08:54;4.30;99.90
52889;DHT22;41413;52.770;6.892;2024-02-26T09:11:25;4.40;99.90
52889;DHT22;41413;52.770;6.892;2024-02-26T09:13:51;4.40;99.90
52889;DHT22;41413;52.770;6.892;2024-02-26T09:16:18;4.40;99.90
52889;DHT22;41413;52.770;6.892;2024-02-26T09:18:45;4.40;99.90
52889;DHT22;41413;52.770;6.892;2024-02-26T09:21:12;4.40;99.90
52889;DHT22;41413;52.770;6.892;2024-02-26T09:23:39;4.50;99.90
52889;DHT22;41413;52.770;6.892;2024-02-26T09:26:05;4.50;99.90
52889;DHT22;41413;52.770;6.892;2024-02-26T09:28:33;4.50;99.90
52889;DHT22;41413;52.770;6.892;2024-02-26T09:31:04;4.50;99.90
52889;DHT22;41413;52.770;6.892;2024-02-26T09:33:33;4.60;99.90
52889;DHT22;41413;52.770;6.892;2024-02-26T09:36:00;4.70;99.90
52889;DHT22;41413;52.770;6.892;2024-02-26T09:38:27;4.60;99.90
52889;DHT22;41413;52.770;6.892;2024-02-26T09:40:54;4.70;99.90
52889;DHT22;41413;52.770;6.892;2024-02-26T09:43:22;4.60;99.90
52889;DHT22;41413;52.770;6.892;2024-02-26T09:45:53;4.70;99.90
52889;DHT22;41413;52.770;6.892;2024-02-26T09:48:20;4.70;99.90
52889;DHT22;41413;52.770;6.892;2024-02-26T09:50:48;4.70;99.90
52889;DHT22;41413;52.770;6.892;2024-02-26T09:53:17;4.70;99.90
52889;DHT22;41413;52.770;6.892;2024-02-26T09:55:44;4.70;99.90
52889;DHT22;41413;52.770;6.892;2024-02-26T09:58:11;4.80;99.90
52889;DHT22;41413;52.770;6.892;2024-02-26T10:00:50;4.80;99.90
52889;DHT22;41413;52.770;6.892;2024-02-26T10:03:21;4.90;99.90
52889;DHT22;41413;52.770;6.892;2024-02-26T10:05:50;5.00;99.90
52889;DHT22;41413;52.770;6.892;2024-02-26T10:08:18;5.00;99.90
52889;DHT22;41413;52.770;6.892;2024-02-26T10:10:49;5.00;99.90
52889;DHT22;41413;52.770;6.892;2024-02-26T10:13:16;5.00;99.90
52889;DHT22;41413;52.770;6.892;2024-02-26T10:15:42;5.10;99.90
52889;DHT22;41413;52.770;6.892;2024-02-26T10:18:09;5.10;99.90
52889;DHT22;41413;52.770;6.892;2024-02-26T10:20:36;5.20;99.90
52889;DHT22;41413;52.770;6.892;2024-02-26T10:23:04;5.20;99.90
52889;DHT22;41413;52.770;6.892;2024-02-26T10:25:31;5.20;99.90
52889;DHT22;41413;52.770;6.892;2024-02-26T10:28:02;5.30;99.90
52889;DHT22;41413;52.770;6.892;2024-02-26T10:30:29;5.30;99.90
52889;DHT22;41413;52.770;6.892;2024-02-26T10:32:57;5.40;99.90
52889;DHT22;41413;52.770;6.892;2024-02-26T10:35:24;5.40;99.90
52889;DHT22;41413;52.770;6.892;2024-02-26T10:37:51;5.50;99.90
52889;DHT22;41413;52.770;6.892;2024-02-26T10:40:19;5.60;99.90
52889;DHT22;41413;52.770;6.892;2024-02-26T10:42:45;5.50;99.90
52889;DHT22;41413;52.770;6.892;2024-02-26T10:45:12;5.60;99.90
52889;DHT22;41413;52.770;6.892;2024-02-26T10:47:40;5.60;99.90
52889;DHT22;41413;52.770;6.892;2024-02-26T10:50:09;5.60;99.90
52889;DHT22;41413;52.770;6.892;2024-02-26T10:52:37;5.60;99.90
52889;DHT22;41413;52.770;6.892;2024-02-26T10:55:05;5.60;99.90
52889;DHT22;41413;52.770;6.892;2024-02-26T10:57:39;5.60;99.90
52889;DHT22;41413;52.770;6.892;2024-02-26T11:00:08;5.60;99.90
52889;DHT22;41413;52.770;6.892;2024-02-26T11:02:40;5.70;99.90
52889;DHT22;41413;52.770;6.892;2024-02-26T11:05:07;5.70;99.90
52889;DHT22;41413;52.770;6.892;2024-02-26T11:07:35;5.70;99.90
52889;DHT22;41413;52.770;6.892;2024-02-26T11:10:04;5.60;99.90
52889;DHT22;41413;52.770;6.892;2024-02-26T11:12:32;5.60;99.90
52889;DHT22;41413;52.770;6.892;2024-02-26T11:15:03;5.70;99.90
52889;DHT22;41413;52.770;6.892;2024-02-26T11:17:30;5.70;99.90
52889;DHT22;41413;52.770;6.892;2024-02-26T11:19:59;5.80;99.90
52889;DHT22;41413;52.770;6.892;2024-02-26T11:22:26;5.80;99.90
52889;DHT22;41413;52.770;6.892;2024-02-26T11:24:54;6.00;99.90
52889;DHT22;41413;52.770;6.892;2024-02-26T11:27:25;6.10;99.90
52889;DHT22;41413;52.770;6.892;2024-02-26T11:29:54;6.10;99.90
52889;DHT22;41413;52.770;6.892;2024-02-26T11:32:21;6.20;99.90
52889;DHT22;41413;52.770;6.892;2024-02-26T11:34:49;6.20;99.90
52889;DHT22;41413;52.770;6.892;2024-02-26T11:37:17;6.30;99.90
52889;DHT22;41413;52.770;6.892;2024-02-26T11:39:45;6.30;99.90
52889;DHT22;41413;52.770;6.892;2024-02-26T11:42:15;6.30;99.90
52889;DHT22;41413;52.770;6.892;2024-02-26T11:44:42;6.40;99.90
52889;DHT22;41413;52.770;6.892;2024-02-26T11:47:17;6.40;99.90
52889;DHT22;41413;52.770;6.892;2024-02-26T11:49:44;6.50;99.90
52889;DHT22;41413;52.770;6.892;2024-02-26T11:52:13;6.50;99.90
52889;DHT22;41413;52.770;6.892;2024-02-26T11:57:30;6.40;99.90
52889;DHT22;41413;52.770;6.892;2024-02-26T12:00:20;6.40;99.90
52889;DHT22;41413;52.770;6.892;2024-02-26T12:02:50;6.50;99.90
52889;DHT22;41413;52.770;6.892;2024-02-26T12:05:25;6.40;99.90
52889;DHT22;41413;52.770;6.892;2024-02-26T12:07:59;6.40;99.90
52889;DHT22;41413;52.770;6.892;2024-02-26T12:13:10;6.40;99.90
52889;DHT22;41413;52.770;6.892;2024-02-26T12:15:47;6.40;99.90
52889;DHT22;41413;52.770;6.892;2024-02-26T12:18:22;6.40;99.90
52889;DHT22;41413;52.770;6.892;2024-02-26T12:21:18;6.60;99.90
52889;DHT22;41413;52.770;6.892;2024-02-26T12:23:45;6.40;99.90
52889;DHT22;41413;52.770;6.892;2024-02-26T12:26:12;6.30;99.90
52889;DHT22;41413;52.770;6.892;2024-02-26T12:28:41;6.30;99.90
52889;DHT22;41413;52.770;6.892;2024-02-26T12:31:08;6.30;99.90
52889;DHT22;41413;52.770;6.892;2024-02-26T12:33:34;6.30;99.90
52889;DHT22;41413;52.770;6.892;2024-02-26T12:36:02;6.30;99.90
52889;DHT22;41413;52.770;6.892;2024-02-26T12:38:28;6.30;99.90
52889;DHT22;41413;52.770;6.892;2024-02-26T12:40:56;6.30;99.90
52889;DHT22;41413;52.770;6.892;2024-02-26T12:43:23;6.30;99.90
52889;DHT22;41413;52.770;6.892;2024-02-26T12:45:50;6.30;99.90
52889;DHT22;41413;52.770;6.892;2024-02-26T12:48:17;6.30;99.90
52889;DHT22;41413;52.770;6.892;2024-02-26T12:50:47;6.30;99.90
52889;DHT22;41413;52.770;6.892;2024-02-26T12:53:14;6.20;99.90
52889;DHT22;41413;52.770;6.892;2024-02-26T12:55:41;6.30;99.90
52889;DHT22;41413;52.770;6.892;2024-02-26T12:58:08;6.30;99.90
52889;DHT22;41413;52.770;6.892;2024-02-26T13:00:36;6.20;99.90
52889;DHT22;41413;52.770;6.892;2024-02-26T13:03:03;6.20;99.90
52889;DHT22;41413;52.770;6.892;2024-02-26T13:05:30;6.30;99.90
52889;DHT22;41413;52.770;6.892;2024-02-26T13:07:58;6.30;99.90
52889;DHT22;41413;52.770;6.892;2024-02-26T13:10:25;6.30;99.90
52889;DHT22;41413;52.770;6.892;2024-02-26T13:12:52;6.30;99.90
52889;DHT22;41413;52.770;6.892;2024-02-26T13:15:20;6.20;99.90
52889;DHT22;41413;52.770;6.892;2024-02-26T13:17:49;6.30;99.90
52889;DHT22;41413;52.770;6.892;2024-02-26T13:20:29;6.30;99.90
52889;DHT22;41413;52.770;6.892;2024-02-26T13:23:02;6.30;99.90
52889;DHT22;41413;52.770;6.892;2024-02-26T13:25:29;6.40;99.90
52889;DHT22;41413;52.770;6.892;2024-02-26T13:28:09;6.30;99.90
52889;DHT22;41413;52.770;6.892;2024-02-26T13:30:39;6.30;99.90
52889;DHT22;41413;52.770;6.892;2024-02-26T13:33:10;6.30;99.90
52889;DHT22;41413;52.770;6.892;2024-02-26T13:35:38;6.30;99.90
52889;DHT22;41413;52.770;6.892;2024-02-26T13:38:06;6.30;99.90
52889;DHT22;41413;52.770;6.892;2024-02-26T13:40:33;6.40;99.90
52889;DHT22;41413;52.770;6.892;2024-02-26T13:43:01;6.40;99.90
52889;DHT22;41413;52.770;6.892;2024-02-26T13:45:27;6.40;99.90
52889;DHT22;41413;52.770;6.892;2024-02-26T13:48:02;6.40;99.90
52889;DHT22;41413;52.770;6.892;2024-02-26T13:50:32;6.40;99.90
52889;DHT22;41413;52.770;6.892;2024-02-26T13:52:59;6.40;99.90
52889;DHT22;41413;52.770;6.892;2024-02-26T13:55:26;6.40;99.90
52889;DHT22;41413;52.770;6.892;2024-02-26T13:57:58;6.50;99.90
52889;DHT22;41413;52.770;6.892;2024-02-26T14:00:27;6.50;99.90
52889;DHT22;41413;52.770;6.892;2024-02-26T14:02:55;6.40;99.90
52889;DHT22;41413;52.770;6.892;2024-02-26T14:05:21;6.30;99.90
52889;DHT22;41413;52.770;6.892;2024-02-26T14:07:48;6.30;99.90
52889;DHT22;41413;52.770;6.892;2024-02-26T14:10:19;6.30;99.90
52889;DHT22;41413;52.770;6.892;2024-02-26T14:12:46;6.30;99.90
52889;DHT22;41413;52.770;6.892;2024-02-26T14:15:12;6.30;99.90
52889;DHT22;41413;52.770;6.892;2024-02-26T14:17:39;6.30;99.90
52889;DHT22;41413;52.770;6.892;2024-02-26T14:20:06;6.30;99.90
52889;DHT22;41413;52.770;6.892;2024-02-26T14:22:35;6.30;99.90
52889;DHT22;41413;52.770;6.892;2024-02-26T14:25:02;6.30;99.90
52889;DHT22;41413;52.770;6.892;2024-02-26T14:27:29;6.40;99.90
52889;DHT22;41413;52.770;6.892;2024-02-26T14:29:56;6.30;99.90
52889;DHT22;41413;52.770;6.892;2024-02-26T14:32:23;6.30;99.90
52889;DHT22;41413;52.770;6.892;2024-02-26T14:34:50;6.20;99.90
52889;DHT22;41413;52.770;6.892;2024-02-26T14:37:16;6.10;99.90
52889;DHT22;41413;52.770;6.892;2024-02-26T14:39:43;6.10;99.90
52889;DHT22;41413;52.770;6.892;2024-02-26T14:42:10;6.10;99.90
52889;DHT22;41413;52.770;6.892;2024-02-26T14:44:37;6.10;99.90
52889;DHT22;41413;52.770;6.892;2024-02-26T14:47:04;6.10;99.90
52889;DHT22;41413;52.770;6.892;2024-02-26T14:49:31;6.10;99.90
52889;DHT22;41413;52.770;6.892;2024-02-26T14:51:58;6.00;99.90
52889;DHT22;41413;52.770;6.892;2024-02-26T14:54:25;6.00;99.90
52889;DHT22;41413;52.770;6.892;2024-02-26T14:56:52;5.90;99.90
52889;DHT22;41413;52.770;6.892;2024-02-26T14:59:19;6.00;99.90
52889;DHT22;41413;52.770;6.892;2024-02-26T15:01:45;5.90;99.90
52889;DHT22;41413;52.770;6.892;2024-02-26T15:04:13;5.90;99.90
52889;DHT22;41413;52.770;6.892;2024-02-26T15:06:40;5.80;99.90
52889;DHT22;41413;52.770;6.892;2024-02-26T15:09:08;6.00;99.90
52889;DHT22;41413;52.770;6.892;2024-02-26T15:11:38;5.90;99.90
52889;DHT22;41413;52.770;6.892;2024-02-26T15:14:07;5.90;99.90
52889;DHT22;41413;52.770;6.892;2024-02-26T15:16:34;6.00;99.90
52889;DHT22;41413;52.770;6.892;2024-02-26T15:19:00;5.90;99.90
52889;DHT22;41413;52.770;6.892;2024-02-26T15:21:27;5.80;99.90
52889;DHT22;41413;52.770;6.892;2024-02-26T15:23:54;5.80;99.90
52889;DHT22;41413;52.770;6.892;2024-02-26T15:26:33;5.70;99.90
52889;DHT22;41413;52.770;6.892;2024-02-26T15:29:01;5.80;99.90
52889;DHT22;41413;52.770;6.892;2024-02-26T15:31:27;5.80;99.90
52889;DHT22;41413;52.770;6.892;2024-02-26T15:33:54;5.80;99.90
52889;DHT22;41413;52.770;6.892;2024-02-26T15:36:21;5.80;99.90
52889;DHT22;41413;52.770;6.892;2024-02-26T15:38:48;5.70;99.90
52889;DHT22;41413;52.770;6.892;2024-02-26T15:41:15;5.70;99.90
52889;DHT22;41413;52.770;6.892;2024-02-26T15:43:43;5.70;99.90
52889;DHT22;41413;52.770;6.892;2024-02-26T15:46:10;5.70;99.90
52889;DHT22;41413;52.770;6.892;2024-02-26T15:48:37;5.70;99.90
52889;DHT22;41413;52.770;6.892;2024-02-26T15:51:04;5.70;99.90
52889;DHT22;41413;52.770;6.892;2024-02-26T15:53:31;5.60;99.90